createdAt,value
2023-04-27T00:02:39.997Z,1.92
2023-04-27T00:05:43.073Z,2.65
2023-04-27T00:08:45.518Z,2.42
2023-04-27T00:11:48.171Z,1.97
2023-04-27T00:14:50.771Z,2.22
2023-04-27T00:17:53.565Z,2.50
2023-04-27T00:20:55.978Z,2.28
2023-04-27T00:23:58.568Z,2.30
2023-04-27T00:27:01.735Z,2.13
2023-04-27T00:30:05.258Z,2.12
2023-04-27T00:33:08.820Z,2.22
2023-04-27T00:36:11.484Z,2.60
2023-04-27T00:39:14.033Z,2.30
2023-04-27T00:42:19.616Z,2.47
2023-04-27T00:45:22.211Z,2.33
2023-04-27T00:48:25.015Z,2.33
2023-04-27T00:51:30.298Z,2.70
2023-04-27T00:54:33.503Z,2.50
2023-04-27T00:57:35.889Z,2.57
2023-04-27T01:00:40.361Z,2.70
2023-04-27T01:03:42.869Z,2.25
2023-04-27T01:06:45.991Z,2.40
2023-04-27T01:09:48.345Z,2.60
2023-04-27T01:12:51.247Z,2.37
2023-04-27T01:15:53.583Z,2.33
2023-04-27T01:18:56.450Z,2.53
2023-04-27T01:21:59.424Z,2.45
2023-04-27T01:25:02.022Z,2.72
2023-04-27T01:28:06.497Z,2.57
2023-04-27T01:31:11.827Z,3.08
2023-04-27T01:34:14.210Z,2.87
2023-04-27T01:37:16.829Z,2.83
2023-04-27T01:40:19.399Z,2.80
2023-04-27T01:43:22.629Z,2.90
2023-04-27T01:46:25.041Z,2.78
2023-04-27T01:49:27.777Z,2.75
2023-04-27T01:52:31.730Z,2.67
2023-04-27T01:55:34.435Z,2.72
2023-04-27T01:58:37.177Z,2.90
2023-04-27T02:01:39.871Z,2.60
2023-04-27T02:04:43.583Z,2.78
2023-04-27T02:07:46.188Z,2.45
2023-04-27T02:10:48.928Z,2.45
2023-04-27T02:13:52.373Z,2.50
2023-04-27T02:16:55.111Z,2.60
2023-04-27T02:19:58.314Z,2.60
2023-04-27T02:23:02.362Z,2.70
2023-04-27T02:26:05.072Z,2.65
2023-04-27T02:29:07.579Z,2.77
2023-04-27T02:32:11.823Z,2.65
2023-04-27T02:35:14.293Z,3.10
2023-04-27T02:38:17.182Z,2.95
2023-04-27T02:41:19.817Z,2.83
2023-04-27T02:44:22.181Z,3.07
2023-04-27T02:47:26.873Z,2.97
2023-04-27T02:50:29.297Z,3.33
2023-04-27T02:53:31.911Z,3.05
2023-04-27T02:56:34.222Z,3.10
2023-04-27T02:59:36.948Z,3.10
2023-04-27T03:02:39.558Z,3.42
2023-04-27T03:05:42.238Z,3.47
2023-04-27T03:08:44.647Z,3.65
2023-04-27T03:11:47.244Z,4.97
2023-04-27T03:14:49.549Z,4.40
2023-04-27T03:17:53.462Z,3.78
2023-04-27T03:21:12.014Z,3.92
2023-04-27T03:24:14.702Z,3.55
2023-04-27T03:27:18.285Z,3.80
2023-04-27T03:30:20.945Z,3.90
2023-04-27T03:33:23.436Z,3.45
2023-04-27T03:36:27.085Z,3.17
2023-04-27T03:39:29.440Z,3.25
2023-04-27T03:42:32.077Z,3.72
2023-04-27T03:45:34.417Z,3.87
2023-04-27T03:48:37.205Z,3.70
2023-04-27T03:51:42.321Z,3.97
2023-04-27T03:54:45.017Z,4.30
2023-04-27T03:57:47.425Z,3.58
2023-04-27T04:00:50.137Z,3.43
2023-04-27T04:03:52.901Z,3.28
2023-04-27T04:06:55.571Z,3.55
2023-04-27T04:09:58.693Z,4.90
2023-04-27T04:13:01.062Z,3.60
2023-04-27T04:16:05.963Z,3.57
2023-04-27T04:19:08.777Z,3.45
2023-04-27T04:22:12.042Z,4.15
2023-04-27T04:25:14.695Z,3.70
2023-04-27T04:28:17.313Z,3.60
2023-04-27T04:31:21.683Z,4.20
2023-04-27T04:34:24.776Z,3.37
2023-04-27T04:37:27.838Z,3.75
2023-04-27T04:40:30.986Z,3.70
2023-04-27T04:43:33.405Z,3.67
2023-04-27T04:46:37.455Z,4.00
2023-04-27T04:49:39.979Z,6.25
2023-04-27T04:52:43.192Z,4.20
2023-04-27T04:55:45.624Z,4.00
2023-04-27T04:58:49.293Z,3.45
2023-04-27T05:01:55.600Z,5.13
2023-04-27T05:04:58.343Z,4.20
2023-04-27T05:08:00.821Z,3.90
2023-04-27T05:11:03.550Z,4.25
2023-04-27T05:14:05.906Z,4.65
2023-04-27T05:17:08.737Z,4.43
2023-04-27T05:20:11.685Z,4.10
2023-04-27T05:23:14.328Z,3.97
2023-04-27T05:26:18.455Z,3.78
2023-04-27T05:29:22.042Z,4.28
2023-04-27T05:32:24.537Z,4.60
2023-04-27T05:35:27.107Z,4.93
2023-04-27T05:38:29.465Z,3.90
2023-04-27T05:41:32.336Z,4.20
2023-04-27T05:44:34.733Z,3.95
2023-04-27T05:47:37.467Z,3.10
2023-04-27T05:50:40.105Z,4.47
2023-04-27T05:53:42.795Z,3.47
2023-04-27T05:56:45.164Z,3.90
2023-04-27T05:59:47.895Z,4.22
2023-04-27T06:02:50.402Z,3.43
2023-04-27T06:05:58.763Z,8.38
2023-04-27T06:09:02.300Z,3.85
2023-04-27T06:12:06.633Z,2.58
2023-04-27T06:15:09.939Z,3.87
2023-04-27T06:18:13.189Z,2.93
2023-04-27T06:21:15.498Z,2.83
2023-04-27T06:24:18.470Z,2.47
2023-04-27T06:27:20.784Z,2.20
2023-04-27T06:30:26.760Z,2.47
2023-04-27T06:33:29.147Z,2.40
2023-04-27T06:36:31.761Z,2.00
2023-04-27T06:39:34.255Z,2.70
2023-04-27T06:42:37.272Z,2.83
2023-04-27T06:45:40.093Z,2.42
2023-04-27T06:48:42.813Z,2.90
2023-04-27T06:51:46.696Z,3.12
2023-04-27T06:54:49.386Z,2.40
2023-04-27T06:57:51.795Z,2.50
2023-04-27T07:00:54.569Z,3.03
2023-04-27T07:03:57.672Z,2.97
2023-04-27T07:07:00.436Z,3.28
2023-04-27T07:10:02.889Z,2.92
2023-04-27T07:13:08.827Z,2.70
2023-04-27T07:16:11.738Z,3.00
2023-04-27T07:19:14.605Z,3.30
2023-04-27T07:22:18.011Z,11.45
2023-04-27T07:25:21.621Z,3.75
2023-04-27T07:28:23.945Z,3.20
2023-04-27T07:31:26.830Z,2.45
2023-04-27T07:34:35.068Z,2.37
2023-04-27T07:37:45.545Z,3.05
2023-04-27T07:40:47.943Z,2.62
2023-04-27T07:43:51.835Z,3.12
2023-04-27T07:46:54.793Z,2.10
2023-04-27T07:49:57.835Z,2.87
2023-04-27T07:53:00.744Z,2.00
2023-04-27T07:56:06.032Z,2.20
2023-04-27T07:59:08.426Z,2.20
2023-04-27T08:02:19.861Z,1.98
2023-04-27T08:05:23.775Z,2.00
2023-04-27T08:08:26.476Z,1.80
2023-04-27T08:11:29.279Z,2.10
2023-04-27T08:14:34.674Z,1.75
2023-04-27T08:17:40.493Z,1.80
2023-04-27T08:20:42.831Z,1.70
2023-04-27T08:23:45.436Z,1.90
2023-04-27T08:26:48.476Z,2.45
2023-04-27T08:29:51.632Z,2.10
2023-04-27T08:32:55.764Z,1.62
2023-04-27T08:35:58.465Z,1.90
2023-04-27T08:39:00.943Z,2.30
2023-04-27T08:42:13.926Z,2.05
2023-04-27T08:45:16.526Z,2.72
2023-04-27T08:48:20.447Z,2.00
2023-04-27T08:51:24.255Z,2.10
2023-04-27T08:54:27.254Z,2.40
2023-04-27T08:57:29.612Z,2.20
2023-04-27T09:00:42.343Z,2.05
2023-04-27T09:03:46.973Z,2.12
2023-04-27T09:06:49.868Z,1.90
2023-04-27T09:10:03.642Z,2.22
2023-04-27T09:13:06.601Z,2.20
2023-04-27T09:16:09.294Z,2.37
2023-04-27T09:19:12.246Z,2.20
2023-04-27T09:22:15.596Z,1.90
2023-04-27T09:25:28.059Z,1.87
2023-04-27T09:28:32.398Z,2.80
2023-04-27T09:31:36.127Z,2.25
2023-04-27T09:34:40.769Z,2.40
2023-04-27T09:37:43.963Z,2.83
2023-04-27T09:40:47.054Z,2.70
2023-04-27T09:43:50.642Z,2.08
2023-04-27T09:46:53.695Z,2.70
2023-04-27T09:49:59.706Z,2.17
2023-04-27T09:53:02.976Z,2.57
2023-04-27T09:56:28.517Z,2.50
2023-04-27T09:59:40.044Z,3.10
2023-04-27T10:06:32.404Z,2.10
2023-04-27T10:09:46.384Z,2.37
2023-04-27T10:13:01.902Z,2.30
2023-04-27T10:16:17.224Z,2.72
2023-04-27T10:19:21.745Z,2.20
2023-04-27T10:22:25.012Z,3.90
2023-04-27T10:25:41.601Z,2.60
2023-04-27T10:28:45.520Z,2.72
2023-04-27T10:31:48.999Z,2.33
2023-04-27T10:35:02.386Z,2.90
2023-04-27T10:38:10.119Z,3.20
2023-04-27T10:41:15.507Z,1.90
2023-04-27T10:44:20.685Z,2.40
2023-04-27T10:47:24.509Z,2.30
2023-04-27T10:50:28.158Z,2.30
2023-04-27T10:53:36.096Z,1.83
2023-04-27T10:56:38.744Z,2.33
2023-04-27T10:59:52.520Z,2.17
2023-04-27T11:02:57.290Z,2.28
2023-04-27T11:06:02.287Z,2.85
2023-04-27T11:09:06.523Z,2.28
2023-04-27T11:12:12.172Z,2.10
2023-04-27T11:15:15.003Z,2.17
2023-04-27T11:18:19.797Z,2.67
2023-04-27T11:21:23.154Z,1.90
2023-04-27T11:24:25.505Z,2.62
2023-04-27T11:27:40.733Z,2.33
2023-04-27T11:30:43.132Z,2.35
2023-04-27T11:33:49.504Z,2.10
2023-04-27T11:37:17.514Z,2.12
2023-04-27T11:40:22.651Z,2.15
2023-04-27T11:43:27.668Z,2.03
2023-04-27T11:46:30.806Z,2.03
2023-04-27T11:49:33.652Z,2.20
2023-04-27T11:52:38.192Z,2.55
2023-04-27T11:55:41.553Z,2.25
2023-04-27T11:58:46.457Z,2.00
2023-04-27T12:01:49.334Z,3.00
2023-04-27T12:04:52.312Z,2.20
2023-04-27T12:07:54.846Z,2.47
2023-04-27T12:10:57.462Z,2.15
2023-04-27T12:13:59.889Z,1.87
2023-04-27T12:17:03.081Z,2.50
2023-04-27T12:20:06.474Z,2.33
2023-04-27T12:23:09.197Z,2.28
2023-04-27T12:26:14.249Z,2.35
2023-04-27T12:29:18.039Z,2.10
2023-04-27T12:32:20.508Z,2.47
2023-04-27T12:35:23.280Z,2.53
2023-04-27T12:38:25.584Z,2.35
2023-04-27T12:41:28.323Z,2.20
2023-04-27T12:44:30.769Z,2.30
2023-04-27T12:47:50.356Z,1.77
2023-04-27T12:50:57.673Z,2.22
2023-04-27T12:54:02.177Z,2.10
2023-04-27T12:57:06.584Z,2.78
2023-04-27T13:00:13.525Z,2.47
2023-04-27T13:03:16.290Z,2.58
2023-04-27T13:06:22.921Z,2.40
2023-04-27T13:09:25.613Z,2.20
2023-04-27T13:12:28.698Z,1.90
2023-04-27T13:15:31.731Z,3.27
2023-04-27T13:18:35.030Z,2.10
2023-04-27T13:21:38.174Z,1.85
2023-04-27T13:24:42.133Z,2.03
2023-04-27T13:27:44.489Z,2.10
2023-04-27T13:30:48.874Z,2.53
2023-04-27T13:33:51.295Z,1.80
2023-04-27T13:36:54.129Z,2.53
2023-04-27T13:39:56.532Z,2.40
2023-04-27T13:42:59.234Z,2.15
2023-04-27T13:46:02.979Z,2.17
2023-04-27T13:49:06.609Z,2.00
2023-04-27T13:52:09.914Z,2.47
2023-04-27T13:55:12.820Z,2.55
2023-04-27T13:58:15.812Z,2.45
2023-04-27T14:01:18.617Z,4.20
2023-04-27T14:04:21.452Z,1.90
2023-04-27T14:07:23.924Z,2.33
2023-04-27T14:10:26.765Z,2.60
2023-04-27T14:13:29.487Z,2.20
2023-04-27T14:16:32.316Z,2.23
2023-04-27T14:19:34.725Z,1.87
2023-04-27T14:22:37.755Z,2.12
2023-04-27T14:25:40.356Z,2.12
2023-04-27T14:28:43.081Z,2.45
2023-04-27T14:31:46.016Z,1.53
2023-04-27T14:34:49.421Z,2.30
2023-04-27T14:37:52.606Z,2.45
2023-04-27T14:40:56.277Z,2.45
2023-04-27T14:43:59.426Z,2.80
2023-04-27T14:47:02.599Z,2.50
2023-04-27T14:50:06.036Z,1.90
2023-04-27T14:53:09.065Z,2.30
2023-04-27T14:56:12.471Z,2.35
2023-04-27T14:59:15.497Z,2.25
2023-04-27T15:02:18.879Z,2.27
2023-04-27T15:05:21.619Z,1.83
2023-04-27T15:08:24.037Z,2.20
2023-04-27T15:11:26.827Z,2.08
2023-04-27T15:14:29.376Z,1.73
2023-04-27T15:17:32.452Z,1.90
2023-04-27T15:20:35.394Z,2.10
2023-04-27T15:23:38.557Z,2.00
2023-04-27T15:26:42.235Z,2.10
2023-04-27T15:29:45.553Z,2.05
2023-04-27T15:32:48.578Z,1.83
2023-04-27T15:35:51.680Z,1.83
2023-04-27T15:38:54.778Z,2.50
2023-04-27T15:41:59.687Z,2.08
2023-04-27T15:45:02.174Z,2.03
2023-04-27T15:48:05.014Z,2.17
2023-04-27T15:51:10.097Z,2.28
2023-04-27T15:54:14.130Z,2.20
2023-04-27T15:57:18.506Z,2.33
2023-04-27T16:00:22.544Z,2.75
2023-04-27T16:03:25.655Z,2.00
2023-04-27T16:06:33.354Z,2.75
2023-04-27T16:09:36.750Z,2.28
2023-04-27T16:12:39.179Z,2.00
2023-04-27T16:15:41.770Z,2.05
2023-04-27T16:18:44.568Z,2.17
2023-04-27T16:21:47.555Z,2.55
2023-04-27T16:24:50.601Z,2.28
2023-04-27T16:27:53.242Z,2.10
2023-04-27T16:30:56.144Z,2.42
2023-04-27T16:33:58.760Z,2.40
2023-04-27T16:37:01.907Z,1.90
2023-04-27T16:40:07.774Z,2.35
2023-04-27T16:43:10.199Z,2.62
2023-04-27T16:46:14.656Z,2.03
2023-04-27T16:49:17.379Z,2.40
2023-04-27T16:52:21.068Z,2.10
2023-04-27T16:55:23.494Z,2.40
2023-04-27T16:58:26.460Z,2.47
2023-04-27T17:01:30.180Z,2.47
2023-04-27T17:04:35.572Z,3.27
2023-04-27T17:07:38.437Z,4.32
2023-04-27T17:10:42.116Z,2.20
2023-04-27T17:13:44.529Z,2.30
2023-04-27T17:16:47.908Z,2.92
2023-04-27T17:19:50.233Z,3.00
2023-04-27T17:22:52.945Z,3.47
2023-04-27T17:25:56.057Z,2.60
2023-04-27T17:29:01.302Z,2.30
2023-04-27T17:32:04.598Z,2.85
2023-04-27T17:35:07.530Z,2.70
2023-04-27T17:38:11.230Z,2.90
2023-04-27T17:41:13.917Z,2.55
2023-04-27T17:44:16.658Z,2.53
2023-04-27T17:47:20.573Z,2.45
2023-04-27T17:50:24.562Z,2.50
2023-04-27T17:53:27.553Z,2.85
2023-04-27T17:56:29.899Z,4.10
2023-04-27T17:59:33.112Z,2.30
2023-04-27T18:02:35.707Z,3.30
2023-04-27T18:05:38.609Z,2.30
2023-04-27T18:08:41.273Z,2.78
2023-04-27T18:11:44.012Z,3.03
2023-04-27T18:14:46.501Z,2.72
2023-04-27T18:17:49.413Z,3.17
2023-04-27T18:20:52.521Z,2.40
2023-04-27T18:23:56.281Z,2.90
2023-04-27T18:27:00.068Z,3.10
2023-04-27T18:30:03.888Z,3.00
2023-04-27T18:33:06.345Z,2.83
2023-04-27T18:36:09.116Z,3.00
2023-04-27T18:39:11.822Z,2.85
2023-04-27T18:42:14.512Z,2.55
2023-04-27T18:45:17.054Z,3.00
2023-04-27T18:48:20.097Z,3.65
2023-04-27T18:51:26.079Z,3.00
2023-04-27T18:54:29.056Z,3.00
2023-04-27T18:57:31.895Z,2.90
2023-04-27T19:00:35.222Z,2.75
2023-04-27T19:03:37.683Z,3.25
2023-04-27T19:06:40.891Z,2.70
2023-04-27T19:09:43.315Z,3.30
2023-04-27T19:12:46.031Z,5.53
2023-04-27T19:15:48.526Z,3.60
2023-04-27T19:18:51.466Z,3.08
2023-04-27T19:21:54.744Z,3.80
2023-04-27T19:24:57.410Z,3.75
2023-04-27T19:28:00.572Z,3.78
2023-04-27T19:31:03.904Z,3.78
2023-04-27T19:34:06.301Z,3.22
2023-04-27T19:37:08.970Z,3.63
2023-04-27T19:40:12.067Z,3.92
2023-04-27T19:43:14.981Z,4.45
2023-04-27T19:46:17.468Z,6.78
2023-04-27T19:49:20.268Z,7.97
2023-04-27T19:52:23.320Z,7.60
2023-04-27T19:55:26.326Z,7.68
2023-04-27T19:58:29.172Z,5.18
2023-04-27T20:01:32.517Z,5.25
2023-04-27T20:04:35.768Z,7.30
2023-04-27T20:07:38.370Z,5.70
2023-04-27T20:10:42.065Z,4.95
2023-04-27T20:13:44.405Z,5.20
2023-04-27T20:16:47.893Z,4.10
2023-04-27T20:19:50.249Z,5.12
2023-04-27T20:22:52.897Z,4.53
2023-04-27T20:25:55.860Z,4.25
2023-04-27T20:28:59.071Z,4.25
2023-04-27T20:32:02.544Z,4.68
2023-04-27T20:35:10.432Z,4.57
2023-04-27T20:38:13.315Z,4.10
2023-04-27T20:41:16.126Z,5.03
2023-04-27T20:44:20.758Z,5.00
2023-04-27T20:47:23.428Z,4.05
2023-04-27T20:50:26.460Z,5.07
2023-04-27T20:53:29.255Z,4.60
2023-04-27T20:56:32.967Z,3.85
2023-04-27T20:59:35.622Z,3.28
2023-04-27T21:02:38.012Z,4.07
2023-04-27T21:05:41.755Z,4.30
2023-04-27T21:08:44.236Z,4.03
2023-04-27T21:11:46.925Z,4.80
2023-04-27T21:14:49.276Z,4.53
2023-04-27T21:17:52.009Z,4.70
2023-04-27T21:20:54.892Z,4.60
2023-04-27T21:24:07.253Z,5.30
2023-04-27T21:27:11.513Z,4.25
2023-04-27T21:30:15.331Z,4.55
2023-04-27T21:33:18.140Z,4.65
2023-04-27T21:36:21.154Z,4.03
2023-04-27T21:39:23.513Z,4.67
2023-04-27T21:42:26.402Z,4.93
2023-04-27T21:45:28.978Z,4.12
2023-04-27T21:48:31.600Z,4.37
2023-04-27T21:51:34.799Z,5.72
2023-04-27T21:54:37.474Z,4.50
2023-04-27T21:57:40.109Z,4.05
2023-04-27T22:00:42.813Z,4.28
2023-04-27T22:03:45.791Z,4.37
2023-04-27T22:06:48.863Z,4.72
2023-04-27T22:09:51.506Z,4.70
2023-04-27T22:12:53.810Z,4.10
2023-04-27T22:15:56.486Z,4.32
2023-04-27T22:18:59.762Z,4.18
2023-04-27T22:22:02.463Z,4.50
2023-04-27T22:25:05.231Z,4.07
2023-04-27T22:28:07.867Z,4.22
2023-04-27T22:31:10.444Z,4.15
2023-04-27T22:34:13.590Z,4.97
2023-04-27T22:37:16.124Z,4.70
2023-04-27T22:40:18.791Z,5.63
2023-04-27T22:43:21.074Z,5.12
2023-04-27T22:46:23.795Z,5.12
2023-04-27T22:49:26.274Z,5.18
2023-04-27T22:52:33.655Z,5.18
2023-04-27T22:55:36.059Z,4.70
2023-04-27T22:58:38.618Z,5.25
2023-04-27T23:01:40.971Z,5.18
2023-04-27T23:04:43.889Z,5.32
2023-04-27T23:07:46.474Z,5.25
2023-04-27T23:10:49.182Z,4.20
2023-04-27T23:13:51.510Z,4.18
2023-04-27T23:16:56.366Z,6.70
2023-04-27T23:20:00.254Z,4.60
2023-04-27T23:23:02.832Z,5.20
2023-04-27T23:26:15.159Z,5.00
2023-04-27T23:29:17.799Z,5.10
2023-04-27T23:32:20.715Z,4.70
2023-04-27T23:35:23.346Z,5.45
2023-04-27T23:38:25.679Z,4.75
2023-04-27T23:41:28.354Z,5.10
2023-04-27T23:44:30.787Z,5.60
2023-04-27T23:47:33.917Z,5.62
2023-04-27T23:50:36.486Z,5.53
2023-04-27T23:53:39.140Z,5.80
2023-04-27T23:56:41.474Z,5.23
2023-04-27T23:59:44.128Z,5.10
